This is the latest recevied weather packets stored in our database for station/object KG4ZVW. If no packets are shown the sender has not sent any weather packets the latest 10 day(s).
| Time | Temp. | Humidity | Pressure | Rain* | Wind** | Luminosity | Snow |
|---|---|---|---|---|---|---|---|
| 1777224808 | 31.67° C | 51% | 1010.5 hPa | 0 mm | - | 988 W/m² | - |
| 1777224504 | 31.11° C | 53% | 1010.5 hPa | 0 mm | - | 997 W/m² | - |
| 1777224222 | 30.56° C | 54% | 1010.6 hPa | 0 mm | - | 1039 W/m² | - |
| 1777223918 | 30.56° C | 53% | 1010.6 hPa | 0 mm | - | 1055 W/m² | - |
| 1777223612 | 31.11° C | 52% | 1010.6 hPa | 0 mm | - | 935 W/m² | - |
| 1777223307 | 31.11° C | 54% | 1010.7 hPa | 0 mm | - | 1042 W/m² | - |
| 1777223002 | 30.56° C | 57% | 1010.7 hPa | 0 mm | - | 1025 W/m² | - |
| 1777222719 | 29.44° C | 58% | 1010.7 hPa | 0 mm | - | 1002 W/m² | - |
| 1777222414 | 30° C | 57% | 1010.7 hPa | 0 mm | - | 209 W/m² | - |
| 1777222109 | 30° C | 58% | 1010.7 hPa | 0 mm | - | 988 W/m² | - |
| 1777221826 | 30.56° C | 58% | 1010.7 hPa | 0 mm | - | 1018 W/m² | - |
| 1777221520 | 30.56° C | 58% | 1010.9 hPa | 0 mm | - | 965 W/m² | - |
| 1777221213 | 29.44° C | 60% | 1010.9 hPa | 0 mm | - | 954 W/m² | - |
| 1777220908 | 29.44° C | 60% | 1010.9 hPa | 0 mm | - | 953 W/m² | - |
| 1777220624 | 29.44° C | 60% | 1011 hPa | 0 mm | - | 954 W/m² | - |
| 1777220318 | 28.89° C | 61% | 1011 hPa | 0 mm | - | 965 W/m² | - |
| 1777220013 | 29.44° C | 60% | 1011 hPa | 0 mm | - | 186 W/m² | - |
| 1777219708 | 29.44° C | 63% | 1011 hPa | 0 mm | - | 933 W/m² | - |
| 1777219423 | 28.33° C | 66% | 1011 hPa | 0 mm | - | 940 W/m² | - |
| 1777219119 | 28.33° C | 64% | 1011 hPa | 0 mm | - | 923 W/m² | - |
| 1777218814 | 28.33° C | 67% | 1011.2 hPa | 0 mm | - | 977 W/m² | - |
| 1777218510 | 28.33° C | 67% | 1011.2 hPa | 0 mm | - | 925 W/m² | - |
| 1777218205 | 28.33° C | 64% | 1011.2 hPa | 0 mm | - | 279 W/m² | - |
| 1777217902 | 28.33° C | 67% | 1011.4 hPa | 0 mm | - | 963 W/m² | - |
| 1777217620 | 28.33° C | 68% | 1011.4 hPa | 0 mm | - | 914 W/m² | - |
* Rain latest hour (hover to see other rain measurements)
** Current wind speed in m/s (hover to see current wind gust speed)